Frontier — WBB3569 — position and weather

sailwx.info

Track history (hours):
 
Tides and Currents Weather Stations Pressure Air Temp Water Temp Dewpoint Dewpoint Depression Visibility Wind Speed Wind Dir Waves Ship Positions

Frontier

Owner: NORDIC FISHERIES INC, NEW BEDFORD, MA. More information available from US FCC via Universal Licensing System and Coast Guard Vessel Documentation Center.

Last reported at 2015-Sep-09 22:07 UTC. Time now 2016-Jul-26 04:35 UTC.
Position N 39°23' W 072°57'.
Warning: this ship's position is months out of date.

Length 28 m.

Type: Fishing. MMSI: 367131750.

Date/timePositionNaut miles runAvg speedWind from/ knotsBaromVisibWave heightAir tempDewpointWater temp
2015-Sep-09 22:07N 39°23' W 072°57'58 6.6
2015-Sep-09 13:16N 40°11' W 072°14'7 9.4
2015-Sep-09 12:34N 40°16' W 072°09'9 9.3
2015-Sep-09 11:33N 40°24' W 072°02'9 9.1
2015-Sep-09 10:33N 40°31' W 071°55'9 9.1
2015-Sep-09 09:33N 40°38' W 071°48'8 8.0
2015-Sep-09 08:33N 40°45' W 071°42'9 9.1
2015-Sep-09 07:33N 40°52' W 071°35'9 9.0
2015-Sep-09 06:33N 40°60' W 071°28'9 9.5
2015-Sep-09 05:33N 41°07' W 071°20'9 9.4
2015-Sep-09 04:33N 41°15' W 071°12'10 9.6
2015-Sep-09 03:34N 41°22' W 071°05'10 9.5
2015-Sep-09 02:33N 41°29' W 070°56'  
Track history (hours):
 
Tides and Currents Weather Stations Pressure Air Temp Water Temp Dewpoint Dewpoint Depression Visibility Wind Speed Wind Dir Waves Ship Positions

Frontier

Owner: NORDIC FISHERIES INC, NEW BEDFORD, MA. More information available from US FCC via Universal Licensing System and Coast Guard Vessel Documentation Center.

Last reported at 2015-Sep-09 22:07 UTC. Time now 2016-Jul-26 04:35 UTC.
Position N 39°23' W 072°57'.
Warning: this ship's position is months out of date.

Length 28 m.

Type: Fishing. MMSI: 367131750.

Date/timePositionNaut miles runAvg speedWind from/ knotsBaromVisibWave heightAir tempDewpointWater temp
2015-Sep-09 22:07N 39°23' W 072°57'58 6.6
2015-Sep-09 13:16N 40°11' W 072°14'7 9.4
2015-Sep-09 12:34N 40°16' W 072°09'9 9.3
2015-Sep-09 11:33N 40°24' W 072°02'9 9.1
2015-Sep-09 10:33N 40°31' W 071°55'9 9.1
2015-Sep-09 09:33N 40°38' W 071°48'8 8.0
2015-Sep-09 08:33N 40°45' W 071°42'9 9.1
2015-Sep-09 07:33N 40°52' W 071°35'9 9.0
2015-Sep-09 06:33N 40°60' W 071°28'9 9.5
2015-Sep-09 05:33N 41°07' W 071°20'9 9.4
2015-Sep-09 04:33N 41°15' W 071°12'10 9.6
2015-Sep-09 03:34N 41°22' W 071°05'10 9.5
2015-Sep-09 02:33N 41°29' W 070°56'  

Dump ship's entire track history